Hualapai, Arizona
Current Conditions -  °F | °C
As of 1:54 PM on Friday 28 Nov 2014 (Local Time) from KGCN Reporting Station
Clear Clear  
Wind Chill: 65°   Ceiling: Unl
Heat Index: 65°   Visibility: 10mi
Dew Point:   Wind: 17mph
Humidity: 9%   Direction: 230°SW
Pressure: 30.16"   Gusts: 23mph
Location:  35.9°N, 113.11°W
Report Text: KGCN 282054Z 23015G20KT 10SM CLR 18/M15 A3016 RMK AO2 SLP181 T01831150 58028
Loading
Personal Weather Stations






























Interactive Weather Map New forecast layout! Learn more

10-Day Weather Forecast

Advertisements
Track Severe Weather on mobile